Time;durP1;ratioP1;P1;durP2;ratioP2;P2;SDS_P1;SDS_P2;PMS_P1;PMS_P2;Temp;Humidity;BMP_temperature;BMP_pressure;BME280_temperature;BME280_humidity;BME280_pressure;Samples;Min_cycle;Max_cycle;Signal;HPM_P1;HPM_P2
2022/03/30 00:04:38;;;;;;;11.98;4.45;;;;;;;11.38;46.38;95016.72;10332279;28;96755;-63
2022/03/30 00:09:41;;;;;;;15.53;4.37;;;;;;;11.35;46.69;95010.88;10327505;28;97338;-63
2022/03/30 00:14:44;;;;;;;12.32;4.43;;;;;;;11.33;46.78;95012.88;10324735;28;98018;-63
2022/03/30 00:19:49;;;;;;;14.95;4.40;;;;;;;11.32;46.77;95000.78;10310987;28;96921;-62
2022/03/30 00:24:52;;;;;;;11.27;4.95;;;;;;;11.32;46.83;94999.97;10330068;28;100124;-62
2022/03/30 00:29:55;;;;;;;12.20;3.97;;;;;;;11.34;46.43;94993.56;10323726;28;96868;-62
2022/03/30 00:34:59;;;;;;;11.40;4.07;;;;;;;11.31;46.76;94999.19;10304377;28;97068;-63
2022/03/30 00:40:03;;;;;;;12.77;4.97;;;;;;;11.33;46.28;94997.19;10316232;28;96946;-62
2022/03/30 00:45:12;;;;;;;13.97;4.07;;;;;;;11.31;46.92;94986.09;10311180;28;100079;-63
2022/03/30 00:50:18;;;;;;;12.25;4.30;;;;;;;11.27;46.52;94982.19;10301900;28;96826;-62
2022/03/30 00:55:22;;;;;;;12.45;4.60;;;;;;;11.21;46.46;94985.56;10316047;28;98662;-63
2022/03/30 01:00:26;;;;;;;10.80;4.22;;;;;;;11.13;47.12;94967.34;10317990;28;97315;-63
2022/03/30 01:05:31;;;;;;;10.10;4.80;;;;;;;11.11;46.85;94969.34;10330962;28;96902;-63
2022/03/30 01:10:34;;;;;;;16.37;4.17;;;;;;;11.02;47.07;94963.41;10327798;28;97304;-62
2022/03/30 01:15:38;;;;;;;12.80;4.47;;;;;;;11.02;46.82;94952.16;10321927;28;98834;-63
2022/03/30 01:20:49;;;;;;;12.48;3.88;;;;;;;10.99;47.13;94954.09;10331209;28;96765;-62
2022/03/30 01:25:52;;;;;;;13.13;4.50;;;;;;;10.93;47.19;94944.41;10328107;28;97057;-63
2022/03/30 01:36:18;;;;;;;9.90;3.95;;;;;;;10.96;46.40;94925.75;10330547;28;97665;-63
2022/03/30 01:41:21;;;;;;;12.32;3.70;;;;;;;10.95;45.79;94926.72;10305591;28;97260;-62
2022/03/30 01:46:24;;;;;;;11.88;4.68;;;;;;;10.96;45.96;94914.47;10313399;28;96948;-62
2022/03/30 01:51:29;;;;;;;11.60;4.00;;;;;;;10.96;46.19;94912.69;10316785;28;96897;-63
2022/03/30 01:56:32;;;;;;;15.10;4.50;;;;;;;10.91;46.45;94896.75;10316354;28;99356;-63
2022/03/30 02:01:35;;;;;;;11.05;3.72;;;;;;;10.87;46.47;94887.63;10321350;28;99653;-63
2022/03/30 02:06:40;;;;;;;13.88;4.70;;;;;;;10.87;46.50;94892.84;10328374;28;97316;-63
2022/03/30 02:11:43;;;;;;;9.52;4.22;;;;;;;10.84;46.73;94887.19;10320328;28;97251;-63
2022/03/30 02:16:46;;;;;;;11.32;4.57;;;;;;;10.83;46.83;94880.34;10327177;28;100082;-62
2022/03/30 02:21:51;;;;;;;14.18;4.57;;;;;;;10.82;46.87;94873.50;10310118;28;97005;-63
2022/03/30 02:26:53;;;;;;;13.43;4.03;;;;;;;10.78;46.64;94873.06;10316825;28;96750;-63
2022/03/30 02:31:57;;;;;;;16.25;4.53;;;;;;;10.75;47.20;94862.97;10329948;28;97784;-63
2022/03/30 02:37:01;;;;;;;14.30;4.65;;;;;;;10.70;47.39;94858.28;10317420;28;96987;-63
2022/03/30 02:42:07;;;;;;;13.07;4.18;;;;;;;10.66;47.22;94858.84;10331401;28;96899;-62
2022/03/30 02:47:10;;;;;;;13.63;4.60;;;;;;;10.61;48.03;94857.56;10328036;28;96970;-63
2022/03/30 02:52:14;;;;;;;12.90;4.13;;;;;;;10.63;47.57;94851.38;10316337;28;97081;-63
2022/03/30 02:57:17;;;;;;;12.60;3.93;;;;;;;10.64;47.85;94858.22;10330499;28;96860;-63
2022/03/30 03:02:19;;;;;;;15.13;4.43;;;;;;;10.55;48.02;94847.06;10332063;28;96997;-63
2022/03/30 03:07:24;;;;;;;12.20;3.97;;;;;;;10.54;47.93;94841.00;10333954;28;96730;-63
2022/03/30 03:12:26;;;;;;;8.60;3.97;;;;;;;10.51;48.14;94838.78;10329599;28;96952;-63
2022/03/30 03:17:29;;;;;;;10.70;4.15;;;;;;;10.45;48.22;94831.66;10318209;28;97272;-63
2022/03/30 03:22:33;;;;;;;13.55;3.78;;;;;;;10.37;48.71;94834.38;10335571;28;97524;-63
2022/03/30 03:27:42;;;;;;;13.50;5.65;;;;;;;10.31;48.65;94822.06;10326189;28;96939;-63
2022/03/30 03:32:45;;;;;;;19.20;5.05;;;;;;;10.28;49.10;94831.03;10318531;28;97645;-63
2022/03/30 03:37:49;;;;;;;11.40;4.18;;;;;;;10.23;49.39;94834.22;10332872;28;97063;-64
2022/03/30 03:42:52;;;;;;;16.07;4.67;;;;;;;10.14;49.68;94824.84;10324514;28;98039;-63
2022/03/30 03:47:56;;;;;;;13.82;4.70;;;;;;;10.04;50.98;94832.09;10316954;28;96856;-62
2022/03/30 03:53:01;;;;;;;11.20;4.10;;;;;;;9.97;50.72;94833.81;10333452;28;96962;-63
2022/03/30 03:58:05;;;;;;;16.83;5.03;;;;;;;9.84;51.85;94827.41;10322531;28;97016;-63
2022/03/30 04:03:08;;;;;;;15.38;4.95;;;;;;;9.72;52.47;94821.00;10315424;28;98679;-63
2022/03/30 04:08:13;;;;;;;13.18;4.68;;;;;;;9.62;53.37;94828.28;10314792;28;100180;-63
2022/03/30 04:13:16;;;;;;;13.40;4.70;;;;;;;9.48;53.54;94829.84;10318958;28;96806;-63
2022/03/30 04:18:19;;;;;;;11.60;4.60;;;;;;;9.41;54.63;94818.47;10324952;28;98235;-64
2022/03/30 04:23:23;;;;;;;15.90;5.43;;;;;;;9.37;54.82;94823.25;10319815;28;96885;-63
2022/03/30 04:28:26;;;;;;;12.37;4.87;;;;;;;9.30;55.02;94823.13;10333465;28;97880;-63
2022/03/30 04:33:29;;;;;;;17.20;4.63;;;;;;;9.22;56.36;94819.75;10308772;28;96924;-63
2022/03/30 04:38:34;;;;;;;16.80;4.82;;;;;;;9.20;56.26;94826.94;10329640;28;96928;-63
2022/03/30 04:43:37;;;;;;;13.57;4.95;;;;;;;9.19;56.81;94826.13;10327240;28;97512;-63
2022/03/30 04:48:40;;;;;;;13.35;4.78;;;;;;;9.10;57.10;94825.38;10324630;28;96769;-63
2022/03/30 04:53:45;;;;;;;16.95;4.97;;;;;;;9.13;57.53;94826.03;10320339;28;98449;-63
2022/03/30 04:58:47;;;;;;;14.02;5.53;;;;;;;9.04;57.90;94833.09;10322641;28;97304;-63
2022/03/30 05:03:51;;;;;;;15.77;4.93;;;;;;;9.01;58.72;94839.44;10321608;28;96932;-63
2022/03/30 05:08:55;;;;;;;15.98;5.18;;;;;;;8.79;60.14;94835.81;10329676;28;97490;-63
2022/03/30 05:13:58;;;;;;;13.00;5.20;;;;;;;8.59;61.46;94838.03;10332214;28;96752;-63
2022/03/30 05:19:01;;;;;;;15.10;5.30;;;;;;;8.50;62.43;94831.25;10330176;28;96757;-63
2022/03/30 05:24:06;;;;;;;16.88;5.65;;;;;;;8.34;63.60;94832.13;10322399;28;96921;-63
2022/03/30 05:29:09;;;;;;;;;;;;;;;8.34;62.53;94832.13;10328887;28;97875;-63
2022/03/30 05:34:12;;;;;;;15.52;6.22;;;;;;;8.29;63.61;94831.81;10324276;28;98365;-63
2022/03/30 05:39:16;;;;;;;14.98;5.30;;;;;;;8.23;64.62;94830.69;10310061;28;98903;-63
2022/03/30 05:44:19;;;;;;;20.03;6.33;;;;;;;8.18;65.13;94835.59;10320495;28;96745;-64
2022/03/30 05:49:22;;;;;;;16.73;6.28;;;;;;;8.07;66.26;94836.75;10334180;28;98030;-63
2022/03/30 05:54:26;;;;;;;15.82;5.80;;;;;;;7.90;67.56;94835.19;10356551;28;100692;-63
2022/03/30 05:59:30;;;;;;;17.17;6.18;;;;;;;7.83;68.02;94840.22;10316194;28;97789;-63
2022/03/30 06:04:33;;;;;;;15.75;6.05;;;;;;;7.90;68.39;94845.56;10314952;28;97088;-63
2022/03/30 06:09:37;;;;;;;19.52;6.13;;;;;;;7.96;68.09;94852.69;10329529;28;98634;-63
2022/03/30 06:14:43;;;;;;;16.17;6.00;;;;;;;8.09;68.03;94854.81;10321937;28;98476;-63
2022/03/30 06:19:49;;;;;;;15.30;6.20;;;;;;;8.18;68.19;94843.41;10318214;28;96886;-63
2022/03/30 06:24:53;;;;;;;17.58;6.18;;;;;;;8.23;68.58;94851.50;10319982;28;100378;-63
2022/03/30 06:29:56;;;;;;;14.25;6.68;;;;;;;8.10;68.95;94856.41;10321341;28;97044;-63
2022/03/30 06:34:59;;;;;;;24.73;6.53;;;;;;;8.10;69.58;94851.22;10322492;28;96755;-63
2022/03/30 06:40:04;;;;;;;15.32;6.18;;;;;;;8.04;70.27;94860.50;10333370;28;96738;-63
2022/03/30 06:45:09;;;;;;;20.30;6.28;;;;;;;8.06;70.24;94863.75;10331645;28;96928;-63
2022/03/30 06:50:13;;;;;;;15.98;6.03;;;;;;;8.09;70.66;94860.00;10334047;28;96943;-63
2022/03/30 06:55:19;;;;;;;22.27;6.22;;;;;;;8.20;70.79;94857.03;10330552;28;96869;-63
2022/03/30 07:00:21;;;;;;;;;;;;;;;8.26;69.90;94855.59;10332308;28;97361;-63
2022/03/30 07:05:25;;;;;;;12.93;6.07;;;;;;;8.32;70.61;94855.69;10332437;28;96979;-63
2022/03/30 07:10:31;;;;;;;15.13;5.53;;;;;;;8.37;71.22;94851.81;10324008;28;96855;-63
2022/03/30 07:15:34;;;;;;;13.55;6.13;;;;;;;8.40;71.48;94852.28;10312483;28;96984;-63
2022/03/30 07:20:37;;;;;;;20.27;6.53;;;;;;;8.45;71.63;94843.97;10302458;28;96816;-63
2022/03/30 07:25:42;;;;;;;17.92;6.40;;;;;;;8.56;72.15;94848.78;10306288;28;96698;-63
2022/03/30 07:30:48;;;;;;;15.97;6.50;;;;;;;8.61;72.20;94843.88;10317658;28;96908;-63
2022/03/30 07:35:51;;;;;;;19.13;6.35;;;;;;;8.65;72.47;94846.97;10320249;28;99994;-62
2022/03/30 07:41:00;;;;;;;16.40;6.17;;;;;;;8.66;72.16;94846.78;10332472;28;96993;-63
2022/03/30 07:46:03;;;;;;;16.17;6.82;;;;;;;8.59;72.61;94843.25;10303984;28;98941;-63
2022/03/30 07:51:06;;;;;;;18.77;6.60;;;;;;;8.50;73.09;94839.06;10320181;28;96982;-63
2022/03/30 07:56:10;;;;;;;18.50;7.03;;;;;;;8.52;73.40;94840.50;10301725;28;96816;-63
2022/03/30 08:01:13;;;;;;;19.52;7.22;;;;;;;8.41;73.52;94837.47;10301617;28;97147;-63
2022/03/30 08:06:16;;;;;;;17.75;6.70;;;;;;;8.42;73.94;94839.91;10307523;28;96825;-63
2022/03/30 08:11:20;;;;;;;21.33;7.63;;;;;;;8.58;74.10;94838.22;10313331;28;97330;-63
2022/03/30 08:16:23;;;;;;;18.40;7.70;;;;;;;8.53;74.08;94846.50;10317817;28;98510;-63
2022/03/30 08:26:48;;;;;;;15.95;7.03;;;;;;;8.56;74.70;94840.97;10301824;28;97563;-63
2022/03/30 08:31:51;;;;;;;14.37;7.10;;;;;;;8.70;74.71;94842.84;10304466;28;96912;-63
2022/03/30 08:36:54;;;;;;;16.23;7.10;;;;;;;8.87;74.56;94842.78;10309365;28;97118;-63
2022/03/30 08:41:58;;;;;;;12.18;6.45;;;;;;;9.09;74.16;94831.56;10332649;28;97272;-62
2022/03/30 08:47:01;;;;;;;13.83;6.33;;;;;;;9.34;73.81;94834.00;10313079;28;98848;-63
2022/03/30 08:52:07;;;;;;;13.48;6.57;;;;;;;9.40;73.87;94827.28;10312704;28;97173;-64
2022/03/30 08:57:12;;;;;;;12.65;6.60;;;;;;;9.62;73.88;94823.06;10313839;28;96918;-63
2022/03/30 09:02:16;;;;;;;14.20;6.05;;;;;;;9.49;74.26;94831.50;10319603;28;97549;-63
2022/03/30 09:07:20;;;;;;;16.43;6.30;;;;;;;9.55;74.33;94819.53;10319550;28;99969;-63
2022/03/30 09:12:27;;;;;;;12.65;6.10;;;;;;;9.54;74.68;94815.31;10318404;28;96658;-63
2022/03/30 09:17:37;;;;;;;13.25;5.85;;;;;;;9.50;74.21;94817.44;10317573;28;99809;-62
2022/03/30 09:22:46;;;;;;;10.90;5.30;;;;;;;9.46;74.85;94831.84;10323173;28;96801;-63
2022/03/30 09:28:11;;;;;;;13.30;6.32;;;;;;;9.44;74.17;94818.97;10315825;28;99033;-64
2022/03/30 09:33:17;;;;;;;13.00;5.55;;;;;;;9.37;74.38;94812.00;10325739;28;96928;-63
2022/03/30 09:38:21;;;;;;;15.80;5.95;;;;;;;9.44;73.80;94808.53;10333325;28;96841;-63
2022/03/30 09:43:28;;;;;;;13.43;5.77;;;;;;;9.72;73.12;94805.38;10334747;28;96853;-64
2022/03/30 09:48:34;;;;;;;13.75;5.28;;;;;;;10.02;72.18;94805.41;10317870;28;96929;-63
2022/03/30 09:53:38;;;;;;;14.68;4.82;;;;;;;10.39;71.03;94798.44;10316869;28;97836;-63
2022/03/30 09:58:44;;;;;;;11.35;5.32;;;;;;;10.60;71.00;94793.28;10309646;28;98497;-63
2022/03/30 10:03:50;;;;;;;16.02;5.22;;;;;;;10.73;71.31;94781.38;10309124;28;96865;-63
2022/03/30 10:08:55;;;;;;;13.77;4.97;;;;;;;10.92;70.74;94769.53;10318909;28;97185;-63
2022/03/30 10:14:01;;;;;;;12.63;4.83;;;;;;;11.21;69.94;94775.59;10305210;28;97126;-63
2022/03/30 10:19:14;;;;;;;12.63;4.95;;;;;;;11.20;68.83;94777.41;10309861;28;96955;-64
2022/03/30 10:24:41;;;;;;;9.88;4.25;;;;;;;11.40;69.39;94761.13;10310391;28;98068;-63
2022/03/30 10:29:52;;;;;;;11.07;4.18;;;;;;;11.90;68.43;94751.41;10318017;28;97549;-64
2022/03/30 10:35:09;;;;;;;13.00;4.65;;;;;;;12.32;66.93;94741.78;10315039;28;96879;-63
2022/03/30 10:40:19;;;;;;;11.45;4.57;;;;;;;12.54;66.19;94736.41;10325745;28;96950;-63
2022/03/30 10:45:27;;;;;;;13.63;4.00;;;;;;;12.65;65.95;94730.59;10317437;28;97069;-63
2022/03/30 10:50:33;;;;;;;9.85;4.13;;;;;;;12.58;66.49;94727.13;10302266;28;98158;-63
2022/03/30 10:55:38;;;;;;;12.52;4.18;;;;;;;12.44;65.10;94721.88;10321631;28;97858;-63
2022/03/30 11:00:42;;;;;;;14.00;4.43;;;;;;;12.19;65.31;94724.19;10331334;28;98728;-63
2022/03/30 11:05:46;;;;;;;;;;;;;;;12.22;65.45;94715.13;10332848;28;100206;-63
2022/03/30 11:10:49;;;;;;;10.38;4.32;;;;;;;12.45;64.85;94718.22;10305677;28;96904;-63
2022/03/30 11:16:13;;;;;;;13.50;3.95;;;;;;;12.25;63.56;94702.47;10316160;28;96947;-64
2022/03/30 11:21:18;;;;;;;13.80;4.00;;;;;;;12.57;62.97;94694.09;10328482;28;98862;-63
2022/03/30 11:26:20;;;;;;;;;;;;;;;13.19;62.33;94682.50;10333813;28;97147;-63
2022/03/30 11:31:25;;;;;;;12.10;4.03;;;;;;;13.31;60.62;94668.78;10331761;28;96824;-63
2022/03/30 11:36:30;;;;;;;9.70;3.60;;;;;;;13.42;60.64;94666.34;10331507;28;97129;-63
2022/03/30 11:41:33;;;;;;;15.40;4.72;;;;;;;13.72;61.26;94665.09;10325308;28;96993;-63
2022/03/30 11:46:38;;;;;;;10.45;3.80;;;;;;;14.46;58.94;94655.94;10318144;28;97163;-63
2022/03/30 11:51:41;;;;;;;9.50;3.90;;;;;;;14.71;60.88;94650.75;10307864;28;96799;-63
2022/03/30 11:56:44;;;;;;;14.10;3.85;;;;;;;14.13;59.43;94645.56;10308407;28;97795;-63
2022/03/30 12:01:52;;;;;;;14.52;4.10;;;;;;;13.94;60.57;94653.31;10314467;28;96911;-63
2022/03/30 12:06:55;;;;;;;14.40;4.68;;;;;;;13.89;59.22;94645.25;10309182;28;97049;-63
2022/03/30 12:11:58;;;;;;;13.80;4.28;;;;;;;14.06;58.37;94631.66;10314898;28;98523;-63
2022/03/30 12:17:04;;;;;;;16.27;4.63;;;;;;;14.30;56.65;94624.88;10296200;28;96905;-63
2022/03/30 12:22:07;;;;;;;13.85;3.83;;;;;;;14.63;55.92;94613.41;10328840;28;96958;-63
2022/03/30 12:27:11;;;;;;;14.10;3.97;;;;;;;14.79;55.12;94606.81;10331200;28;98433;-63
2022/03/30 12:32:16;;;;;;;13.20;5.10;;;;;;;14.80;56.37;94593.47;10312456;28;96905;-64
2022/03/30 12:37:23;;;;;;;11.15;4.03;;;;;;;14.53;55.40;94592.84;10329040;28;97139;-63
2022/03/30 12:42:29;;;;;;;12.88;3.90;;;;;;;14.30;55.09;94591.53;10330121;28;96925;-63
2022/03/30 12:47:35;;;;;;;13.60;4.07;;;;;;;14.40;55.61;94585.03;10329230;28;96967;-63
2022/03/30 12:52:40;;;;;;;12.73;4.35;;;;;;;14.56;54.35;94563.53;10328690;28;96842;-63
2022/03/30 12:57:57;;;;;;;13.40;3.90;;;;;;;14.77;54.60;94562.34;10329745;28;96734;-64
2022/03/30 13:03:06;;;;;;;12.52;4.07;;;;;;;14.89;53.46;94550.09;10307690;28;96871;-63
2022/03/30 13:08:14;;;;;;;11.07;3.45;;;;;;;15.33;52.06;94544.81;10300066;28;96994;-64
2022/03/30 13:13:17;;;;;;;14.85;4.22;;;;;;;16.02;51.16;94531.47;10306587;28;96794;-64
2022/03/30 13:18:22;;;;;;;11.20;3.50;;;;;;;16.33;50.93;94529.63;10300070;28;96868;-64
2022/03/30 13:23:45;;;;;;;11.68;3.53;;;;;;;16.88;49.95;94512.75;10319506;28;97166;-64
2022/03/30 13:28:48;;;;;;;9.40;3.30;;;;;;;17.20;49.01;94510.59;10331601;28;100017;-64
2022/03/30 13:33:54;;;;;;;8.82;3.03;;;;;;;18.71;45.39;94500.69;10326820;28;97014;-63
2022/03/30 13:38:58;;;;;;;10.60;3.53;;;;;;;20.04;44.21;94495.53;10308796;28;96831;-64
2022/03/30 13:44:05;;;;;;;6.30;3.20;;;;;;;19.97;42.39;94482.50;10335722;28;96829;-64
2022/03/30 13:49:09;;;;;;;8.77;3.30;;;;;;;18.59;44.06;94478.81;10311206;28;96976;-64
2022/03/30 13:54:12;;;;;;;;;;;;;;;20.45;43.45;94462.25;10310779;28;99824;-64
2022/03/30 13:59:15;;;;;;;9.20;3.20;;;;;;;21.71;40.50;94455.56;10336498;28;96960;-64
2022/03/30 14:04:21;;;;;;;8.32;2.95;;;;;;;19.94;41.28;94462.59;10325148;28;97072;-64
2022/03/30 14:09:24;;;;;;;8.60;3.00;;;;;;;17.34;45.24;94464.41;10322425;28;97003;-64
2022/03/30 14:14:27;;;;;;;7.25;2.75;;;;;;;16.14;46.84;94455.94;10335034;28;97163;-63
2022/03/30 14:19:31;;;;;;;7.75;2.92;;;;;;;15.35;48.27;94455.94;10321903;28;96896;-64
2022/03/30 14:24:34;;;;;;;;;;;;;;;15.12;47.77;94448.75;10315263;28;98578;-63
2022/03/30 14:29:38;;;;;;;8.60;2.65;;;;;;;15.21;48.62;94430.84;10304485;28;96807;-63
2022/03/30 14:34:42;;;;;;;11.85;3.28;;;;;;;14.85;49.96;94427.19;10315513;28;98557;-63
2022/03/30 14:39:45;;;;;;;8.15;3.28;;;;;;;14.58;49.44;94426.66;10326872;28;96820;-63
2022/03/30 14:44:48;;;;;;;8.98;2.72;;;;;;;14.64;49.89;94421.31;10317338;28;96756;-64
2022/03/30 14:49:52;;;;;;;8.88;3.08;;;;;;;14.88;49.38;94405.72;10310763;28;97073;-63
2022/03/30 14:54:55;;;;;;;8.60;2.85;;;;;;;15.20;48.25;94403.72;10310180;28;97072;-63
2022/03/30 14:59:58;;;;;;;7.15;3.15;;;;;;;15.08;49.25;94390.53;10305670;28;97170;-63
2022/03/30 15:05:04;;;;;;;8.32;2.80;;;;;;;15.18;48.97;94394.44;10327336;28;96862;-64
2022/03/30 15:10:14;;;;;;;6.82;2.88;;;;;;;15.12;49.09;94391.69;10328045;28;96949;-64
2022/03/30 15:15:17;;;;;;;8.73;2.70;;;;;;;14.83;49.15;94387.16;10332735;28;96799;-63
2022/03/30 15:20:21;;;;;;;7.18;2.72;;;;;;;14.37;49.95;94373.50;10331828;28;96931;-63
2022/03/30 15:25:24;;;;;;;6.05;2.63;;;;;;;14.06;50.37;94377.00;10332384;28;96800;-63
2022/03/30 15:30:28;;;;;;;6.95;2.63;;;;;;;13.91;50.25;94370.22;10332231;28;97063;-63
2022/03/30 15:35:33;;;;;;;8.38;2.95;;;;;;;13.99;50.58;94366.53;10308553;28;97021;-64
2022/03/30 15:40:36;;;;;;;7.20;2.88;;;;;;;13.86;50.99;94356.94;10313216;28;96834;-63
2022/03/30 15:45:40;;;;;;;7.68;2.63;;;;;;;13.97;50.42;94352.81;10317503;28;97078;-63
2022/03/30 15:50:44;;;;;;;10.13;3.57;;;;;;;13.96;51.36;94345.94;10307855;28;96685;-63
2022/03/30 15:55:47;;;;;;;;;;;;;;;13.61;51.45;94344.59;10312411;28;96861;-63
2022/03/30 16:00:50;;;;;;;10.85;2.83;;;;;;;13.58;52.11;94334.53;10326572;28;96891;-64
2022/03/30 16:05:55;;;;;;;14.05;3.53;;;;;;;13.63;51.45;94326.81;10307563;28;96955;-63
2022/03/30 16:16:19;;;;;;;8.20;3.10;;;;;;;14.17;50.46;94321.13;10329451;28;96876;-64
2022/03/30 16:21:24;;;;;;;7.03;2.60;;;;;;;14.12;50.74;94328.84;10314076;28;96810;-64
2022/03/30 16:26:27;;;;;;;7.80;2.50;;;;;;;14.10;49.75;94325.63;10315003;28;96869;-64
2022/03/30 16:31:35;;;;;;;7.60;2.65;;;;;;;14.72;48.74;94317.75;10321982;28;96912;-63
2022/03/30 16:36:39;;;;;;;7.22;2.55;;;;;;;15.78;48.41;94331.28;10329992;28;97009;-64
2022/03/30 16:41:42;;;;;;;7.72;2.78;;;;;;;15.61;47.67;94325.06;10314062;28;97375;-63
2022/03/30 16:46:46;;;;;;;7.93;2.80;;;;;;;14.97;49.75;94315.00;10313824;28;96719;-63
2022/03/30 16:51:51;;;;;;;9.77;2.97;;;;;;;14.33;50.83;94311.91;10309786;28;96934;-63
2022/03/30 16:56:53;;;;;;;7.43;2.60;;;;;;;13.99;51.36;94314.81;10316987;28;97036;-63
2022/03/30 17:01:56;;;;;;;6.07;3.20;;;;;;;13.77;50.92;94314.41;10304995;28;97064;-63
2022/03/30 17:07:01;;;;;;;9.18;5.57;;;;;;;13.51;51.33;94318.03;10336859;28;96744;-63
2022/03/30 17:12:05;;;;;;;6.30;2.47;;;;;;;13.31;51.41;94320.81;10336328;28;96966;-63
2022/03/30 17:17:09;;;;;;;7.13;3.45;;;;;;;13.09;51.95;94327.41;10334700;28;96868;-64
2022/03/30 17:22:15;;;;;;;9.35;2.97;;;;;;;12.90;52.29;94316.75;10315336;28;100398;-63
2022/03/30 17:27:18;;;;;;;9.55;3.10;;;;;;;12.61;53.74;94328.56;10327671;28;97264;-63
2022/03/30 17:32:21;;;;;;;6.90;3.08;;;;;;;12.00;57.42;94327.91;10320645;28;99530;-63
2022/03/30 17:37:26;;;;;;;7.30;2.90;;;;;;;11.35;61.17;94333.75;10321504;28;96908;-63
2022/03/30 17:42:33;;;;;;;10.65;2.88;;;;;;;10.68;62.50;94331.94;10318097;28;98453;-63
2022/03/30 17:47:36;;;;;;;8.07;2.70;;;;;;;10.34;63.36;94333.56;10332957;28;98199;-63
2022/03/30 17:52:40;;;;;;;8.88;3.28;;;;;;;9.85;66.59;94335.28;10332604;28;97117;-63
2022/03/30 17:57:45;;;;;;;8.67;2.93;;;;;;;9.44;68.30;94334.19;10321267;28;96800;-63
2022/03/30 18:02:48;;;;;;;15.55;8.15;;;;;;;9.19;69.49;94325.09;10325997;28;97117;-66
2022/03/30 18:07:52;;;;;;;10.48;6.03;;;;;;;9.20;69.39;94326.72;10326785;28;96924;-64
2022/03/30 18:12:55;;;;;;;10.40;3.10;;;;;;;9.13;68.88;94323.25;10321765;28;98163;-66
2022/03/30 18:17:57;;;;;;;10.20;3.05;;;;;;;8.90;70.00;94326.81;10324658;28;96845;-64
2022/03/30 18:23:02;;;;;;;9.60;2.85;;;;;;;8.79;70.84;94324.69;10332365;28;98493;-63
2022/03/30 18:28:07;;;;;;;11.43;3.28;;;;;;;8.80;70.43;94334.13;10326958;28;97267;-63
2022/03/30 18:33:09;;;;;;;7.20;2.93;;;;;;;8.89;70.38;94330.41;10324293;28;96896;-63
2022/03/30 18:38:17;;;;;;;7.95;2.88;;;;;;;9.05;70.45;94343.19;10332448;28;100742;-63
2022/03/30 18:43:22;;;;;;;11.10;3.20;;;;;;;8.94;71.43;94351.50;10322896;28;98691;-63
2022/03/30 18:48:25;;;;;;;8.73;3.47;;;;;;;8.82;72.37;94355.56;10327002;28;96829;-63
2022/03/30 18:53:30;;;;;;;8.15;4.00;;;;;;;8.65;73.48;94366.19;10326745;28;98231;-63
2022/03/30 18:58:35;;;;;;;9.57;3.80;;;;;;;8.34;73.64;94372.41;10331971;28;96867;-63
2022/03/30 19:03:38;;;;;;;11.13;3.95;;;;;;;8.07;73.92;94366.03;10320968;28;98804;-62
2022/03/30 19:08:43;;;;;;;9.65;4.57;;;;;;;8.02;74.59;94370.97;10325135;28;100947;-62
2022/03/30 19:13:45;;;;;;;13.13;4.53;;;;;;;7.97;75.06;94379.28;10321058;28;96828;-62
2022/03/30 19:18:49;;;;;;;8.93;3.85;;;;;;;7.96;74.84;94372.47;10315250;28;98746;-63
2022/03/30 19:23:53;;;;;;;10.55;3.67;;;;;;;7.96;74.89;94374.25;10318508;28;98584;-62
2022/03/30 19:28:56;;;;;;;11.63;7.10;;;;;;;7.86;75.40;94381.53;10322363;28;98061;-64
2022/03/30 19:33:59;;;;;;;12.25;5.18;;;;;;;7.91;75.95;94374.81;10315367;28;98114;-66
2022/03/30 19:39:04;;;;;;;16.27;7.82;;;;;;;8.05;76.05;94370.59;10308805;28;97175;-65
2022/03/30 19:44:07;;;;;;;34.73;20.17;;;;;;;7.85;77.65;94380.69;10324546;28;97141;-64
2022/03/30 19:49:11;;;;;;;10.95;5.03;;;;;;;7.80;77.73;94377.81;10318760;28;96959;-63
2022/03/30 19:54:15;;;;;;;14.68;5.00;;;;;;;7.85;78.02;94385.91;10325365;28;97167;-63
2022/03/30 19:59:18;;;;;;;11.60;4.10;;;;;;;7.78;77.79;94374.59;10329401;28;96818;-62
2022/03/30 20:04:21;;;;;;;9.63;4.10;;;;;;;7.84;77.69;94373.91;10319128;28;98656;-62
2022/03/30 20:09:27;;;;;;;8.32;3.80;;;;;;;7.98;77.46;94370.50;10324168;28;97080;-62
2022/03/30 20:14:31;;;;;;;8.45;4.15;;;;;;;8.05;77.43;94369.78;10321992;28;97054;-64
2022/03/30 20:19:35;;;;;;;9.33;3.70;;;;;;;7.94;77.76;94366.66;10312819;28;101322;-63
2022/03/30 20:24:39;;;;;;;11.02;4.00;;;;;;;7.88;77.76;94358.75;10318630;28;99111;-63
2022/03/30 20:29:44;;;;;;;9.27;4.37;;;;;;;7.94;77.92;94351.06;10315571;28;98493;-62
2022/03/30 20:34:47;;;;;;;8.75;4.28;;;;;;;7.81;79.08;94357.84;10319792;28;100273;-63
2022/03/30 20:39:52;;;;;;;11.07;4.68;;;;;;;7.67;79.51;94364.63;10324526;28;99789;-63
2022/03/30 20:44:55;;;;;;;8.43;4.77;;;;;;;7.76;79.58;94366.16;10331150;28;98320;-62
2022/03/30 20:49:58;;;;;;;8.27;4.43;;;;;;;7.79;79.47;94363.22;10330036;28;96985;-62
2022/03/30 20:55:02;;;;;;;11.32;5.75;;;;;;;7.71;79.86;94358.09;10324659;28;96792;-62
2022/03/30 21:00:07;;;;;;;13.40;5.43;;;;;;;7.68;79.74;94355.84;10323744;28;98648;-63
2022/03/30 21:05:11;;;;;;;;;;;;;;;7.67;79.36;94356.84;10326873;28;96937;-63
2022/03/30 21:10:15;;;;;;;11.57;5.63;;;;;;;7.54;79.79;94355.63;10327073;28;101006;-62
2022/03/30 21:15:18;;;;;;;15.03;6.67;;;;;;;7.46;79.92;94353.09;10327383;28;97029;-63
2022/03/30 21:20:21;;;;;;;12.05;5.85;;;;;;;7.50;80.05;94350.97;10327104;28;96776;-62
2022/03/30 21:25:26;;;;;;;11.68;6.03;;;;;;;7.38;80.66;94343.56;10320184;28;96899;-62
2022/03/30 21:30:29;;;;;;;11.93;5.97;;;;;;;7.34;80.42;94337.13;10322903;28;97342;-63
2022/03/30 21:35:33;;;;;;;13.60;6.70;;;;;;;7.13;81.95;94340.38;10323945;28;103697;-62
2022/03/30 21:40:38;;;;;;;12.33;5.93;;;;;;;7.08;81.78;94329.69;10328412;28;97071;-62
2022/03/30 21:45:41;;;;;;;15.20;5.50;;;;;;;7.13;81.44;94331.78;10322619;28;96828;-62
2022/03/30 21:50:44;;;;;;;11.02;5.40;;;;;;;7.03;81.55;94334.59;10330164;28;96989;-62
2022/03/30 21:55:48;;;;;;;11.23;5.57;;;;;;;6.99;81.81;94333.34;10330845;28;96857;-63
2022/03/30 22:01:03;;;;;;;13.20;5.37;;;;;;;7.08;82.27;94324.50;10333847;28;99439;-62
2022/03/30 22:06:06;;;;;;;12.97;5.20;;;;;;;7.02;82.09;94327.75;10332114;28;96999;-62
2022/03/30 22:11:10;;;;;;;15.25;5.30;;;;;;;7.08;81.91;94314.09;10341558;28;97409;-62
2022/03/30 22:16:14;;;;;;;13.93;6.13;;;;;;;7.19;81.46;94316.28;10323143;28;97172;-62
2022/03/30 22:21:18;;;;;;;9.63;4.97;;;;;;;7.08;81.89;94324.50;10333723;28;97490;-62
2022/03/30 22:26:23;;;;;;;8.23;4.85;;;;;;;6.97;82.52;94319.69;10329351;28;96684;-63
2022/03/30 22:36:47;;;;;;;9.38;5.07;;;;;;;7.00;82.15;94306.38;10314989;28;96986;-62
2022/03/30 22:41:52;;;;;;;11.00;4.57;;;;;;;6.97;82.36;94291.13;10312030;28;100634;-63
2022/03/30 22:46:55;;;;;;;13.93;5.35;;;;;;;7.06;81.92;94287.53;10321811;28;97170;-62
2022/03/30 22:51:57;;;;;;;11.68;4.68;;;;;;;7.08;81.76;94298.53;10324302;28;98398;-62
2022/03/30 22:57:02;;;;;;;12.38;6.10;;;;;;;6.97;82.02;94304.13;10325297;28;96963;-63
2022/03/30 23:02:05;;;;;;;12.88;6.60;;;;;;;6.90;82.03;94300.56;10327493;28;96730;-63
2022/03/30 23:12:29;;;;;;;15.77;6.65;;;;;;;6.91;81.94;94294.41;10324897;28;100745;-63
2022/03/30 23:17:32;;;;;;;12.00;6.28;;;;;;;6.77;82.21;94283.78;10320934;28;97034;-62
2022/03/30 23:22:35;;;;;;;13.75;6.78;;;;;;;6.78;82.17;94277.63;10326557;28;100375;-63
2022/03/30 23:27:39;;;;;;;13.77;6.57;;;;;;;6.75;82.22;94275.38;10326199;28;98004;-62
2022/03/30 23:32:42;;;;;;;11.13;5.47;;;;;;;6.56;82.65;94275.81;10314889;28;99972;-62
2022/03/30 23:37:50;;;;;;;11.05;6.32;;;;;;;6.55;82.68;94275.00;10312723;28;98413;-62
2022/03/30 23:42:55;;;;;;;16.48;6.50;;;;;;;6.65;82.52;94272.97;10324806;28;97794;-62
2022/03/30 23:47:58;;;;;;;13.27;6.70;;;;;;;6.69;82.21;94270.06;10322946;28;97131;-63
2022/03/30 23:53:03;;;;;;;13.32;6.45;;;;;;;6.69;82.64;94263.06;10318628;28;98255;-62
2022/03/30 23:58:07;;;;;;;13.30;6.07;;;;;;;6.73;82.47;94260.94;10323370;28;96987;-62
